sensor_id;sensor_type;location;lat;lon;timestamp;P1;durP1;ratioP1;P2;durP2;ratioP2
47589;SDS011;33316;52.298;9.056;2024-03-25T00:01:02;3.60;;;1.20;;
47589;SDS011;33316;52.298;9.056;2024-03-25T00:03:28;3.95;;;1.75;;
47589;SDS011;33316;52.298;9.056;2024-03-25T00:05:56;4.32;;;1.02;;
47589;SDS011;33316;52.298;9.056;2024-03-25T00:08:22;4.93;;;1.33;;
47589;SDS011;33316;52.298;9.056;2024-03-25T00:10:49;4.50;;;1.08;;
47589;SDS011;33316;52.298;9.056;2024-03-25T00:13:15;5.75;;;1.00;;
47589;SDS011;33316;52.298;9.056;2024-03-25T00:15:42;2.67;;;1.00;;
47589;SDS011;33316;52.298;9.056;2024-03-25T00:18:09;4.25;;;1.48;;
47589;SDS011;33316;52.298;9.056;2024-03-25T00:20:36;7.65;;;1.42;;
47589;SDS011;33316;52.298;9.056;2024-03-25T00:23:03;3.83;;;0.80;;
47589;SDS011;33316;52.298;9.056;2024-03-25T00:25:30;4.22;;;1.00;;
47589;SDS011;33316;52.298;9.056;2024-03-25T00:27:56;5.63;;;1.13;;
47589;SDS011;33316;52.298;9.056;2024-03-25T00:30:23;3.47;;;0.98;;
47589;SDS011;33316;52.298;9.056;2024-03-25T00:32:49;4.15;;;1.30;;
47589;SDS011;33316;52.298;9.056;2024-03-25T00:35:16;3.78;;;0.90;;
47589;SDS011;33316;52.298;9.056;2024-03-25T00:37:43;3.47;;;1.00;;
47589;SDS011;33316;52.298;9.056;2024-03-25T00:40:12;4.40;;;1.13;;
47589;SDS011;33316;52.298;9.056;2024-03-25T00:42:38;3.60;;;1.20;;
47589;SDS011;33316;52.298;9.056;2024-03-25T00:45:05;4.22;;;1.10;;
47589;SDS011;33316;52.298;9.056;2024-03-25T00:47:32;3.38;;;1.15;;
47589;SDS011;33316;52.298;9.056;2024-03-25T00:49:59;3.40;;;1.17;;
47589;SDS011;33316;52.298;9.056;2024-03-25T00:52:24;7.65;;;1.35;;
47589;SDS011;33316;52.298;9.056;2024-03-25T00:54:51;3.58;;;0.90;;
47589;SDS011;33316;52.298;9.056;2024-03-25T00:57:18;2.90;;;0.98;;
47589;SDS011;33316;52.298;9.056;2024-03-25T00:59:45;4.28;;;1.10;;
47589;SDS011;33316;52.298;9.056;2024-03-25T01:02:11;3.72;;;1.02;;
47589;SDS011;33316;52.298;9.056;2024-03-25T01:04:38;5.45;;;1.13;;
47589;SDS011;33316;52.298;9.056;2024-03-25T01:07:04;7.75;;;1.35;;
47589;SDS011;33316;52.298;9.056;2024-03-25T01:09:31;1.85;;;0.63;;
47589;SDS011;33316;52.298;9.056;2024-03-25T01:11:57;3.80;;;0.95;;
47589;SDS011;33316;52.298;9.056;2024-03-25T01:14:25;2.15;;;0.90;;
47589;SDS011;33316;52.298;9.056;2024-03-25T01:16:51;3.13;;;1.10;;
47589;SDS011;33316;52.298;9.056;2024-03-25T01:19:18;4.03;;;1.30;;
47589;SDS011;33316;52.298;9.056;2024-03-25T01:21:46;4.47;;;1.23;;
47589;SDS011;33316;52.298;9.056;2024-03-25T01:24:13;3.55;;;1.10;;
47589;SDS011;33316;52.298;9.056;2024-03-25T01:26:39;3.63;;;0.93;;
47589;SDS011;33316;52.298;9.056;2024-03-25T01:29:06;3.75;;;1.10;;
47589;SDS011;33316;52.298;9.056;2024-03-25T01:31:34;3.00;;;0.95;;
47589;SDS011;33316;52.298;9.056;2024-03-25T01:34:00;2.63;;;1.00;;
47589;SDS011;33316;52.298;9.056;2024-03-25T01:36:26;3.15;;;1.00;;
47589;SDS011;33316;52.298;9.056;2024-03-25T01:38:53;3.03;;;1.10;;
47589;SDS011;33316;52.298;9.056;2024-03-25T01:41:20;3.85;;;0.90;;
47589;SDS011;33316;52.298;9.056;2024-03-25T01:43:48;4.70;;;1.10;;
47589;SDS011;33316;52.298;9.056;2024-03-25T01:46:14;5.38;;;1.08;;
47589;SDS011;33316;52.298;9.056;2024-03-25T01:48:43;1.73;;;0.82;;
47589;SDS011;33316;52.298;9.056;2024-03-25T01:51:09;2.28;;;0.80;;
47589;SDS011;33316;52.298;9.056;2024-03-25T01:53:37;3.92;;;0.73;;
47589;SDS011;33316;52.298;9.056;2024-03-25T01:56:04;2.38;;;0.90;;
47589;SDS011;33316;52.298;9.056;2024-03-25T01:58:31;2.10;;;0.75;;
47589;SDS011;33316;52.298;9.056;2024-03-25T02:00:57;2.92;;;0.63;;
47589;SDS011;33316;52.298;9.056;2024-03-25T02:03:26;1.42;;;0.50;;
47589;SDS011;33316;52.298;9.056;2024-03-25T02:05:55;2.20;;;0.80;;
47589;SDS011;33316;52.298;9.056;2024-03-25T02:08:27;1.48;;;0.57;;
47589;SDS011;33316;52.298;9.056;2024-03-25T02:10:54;1.92;;;0.80;;
47589;SDS011;33316;52.298;9.056;2024-03-25T02:13:22;1.50;;;0.70;;
47589;SDS011;33316;52.298;9.056;2024-03-25T02:15:48;3.13;;;0.80;;
47589;SDS011;33316;52.298;9.056;2024-03-25T02:18:16;2.80;;;0.65;;
47589;SDS011;33316;52.298;9.056;2024-03-25T02:20:42;3.72;;;0.85;;
47589;SDS011;33316;52.298;9.056;2024-03-25T02:23:11;2.00;;;0.80;;
47589;SDS011;33316;52.298;9.056;2024-03-25T02:25:38;1.42;;;0.60;;
47589;SDS011;33316;52.298;9.056;2024-03-25T02:28:08;5.15;;;1.08;;
47589;SDS011;33316;52.298;9.056;2024-03-25T02:30:34;3.55;;;0.90;;
47589;SDS011;33316;52.298;9.056;2024-03-25T02:33:02;1.77;;;0.68;;
47589;SDS011;33316;52.298;9.056;2024-03-25T02:35:29;4.18;;;0.80;;
47589;SDS011;33316;52.298;9.056;2024-03-25T02:37:56;1.88;;;0.73;;
47589;SDS011;33316;52.298;9.056;2024-03-25T02:40:23;1.92;;;0.70;;
47589;SDS011;33316;52.298;9.056;2024-03-25T02:42:51;3.00;;;0.75;;
47589;SDS011;33316;52.298;9.056;2024-03-25T02:45:18;1.67;;;0.63;;
47589;SDS011;33316;52.298;9.056;2024-03-25T02:47:45;2.40;;;0.90;;
47589;SDS011;33316;52.298;9.056;2024-03-25T02:50:12;3.22;;;0.95;;
47589;SDS011;33316;52.298;9.056;2024-03-25T02:52:38;3.35;;;0.90;;
47589;SDS011;33316;52.298;9.056;2024-03-25T02:55:05;2.75;;;0.77;;
47589;SDS011;33316;52.298;9.056;2024-03-25T02:57:32;2.80;;;0.88;;
47589;SDS011;33316;52.298;9.056;2024-03-25T02:59:57;4.53;;;1.30;;
47589;SDS011;33316;52.298;9.056;2024-03-25T03:02:26;7.90;;;1.50;;
47589;SDS011;33316;52.298;9.056;2024-03-25T03:04:51;6.22;;;1.55;;
47589;SDS011;33316;52.298;9.056;2024-03-25T03:07:18;7.07;;;1.65;;
47589;SDS011;33316;52.298;9.056;2024-03-25T03:09:44;6.53;;;1.88;;
47589;SDS011;33316;52.298;9.056;2024-03-25T03:12:11;7.68;;;1.95;;
47589;SDS011;33316;52.298;9.056;2024-03-25T03:14:37;8.45;;;1.83;;
47589;SDS011;33316;52.298;9.056;2024-03-25T03:17:04;7.03;;;1.77;;
47589;SDS011;33316;52.298;9.056;2024-03-25T03:19:31;4.93;;;1.27;;
47589;SDS011;33316;52.298;9.056;2024-03-25T03:22:01;7.10;;;1.52;;
47589;SDS011;33316;52.298;9.056;2024-03-25T03:24:27;9.95;;;2.20;;
47589;SDS011;33316;52.298;9.056;2024-03-25T03:26:54;6.63;;;1.90;;
47589;SDS011;33316;52.298;9.056;2024-03-25T03:29:20;8.25;;;1.95;;
47589;SDS011;33316;52.298;9.056;2024-03-25T03:31:46;8.52;;;1.90;;
47589;SDS011;33316;52.298;9.056;2024-03-25T03:34:12;4.75;;;1.73;;
47589;SDS011;33316;52.298;9.056;2024-03-25T03:36:41;7.38;;;2.03;;
47589;SDS011;33316;52.298;9.056;2024-03-25T03:39:06;9.18;;;2.10;;
47589;SDS011;33316;52.298;9.056;2024-03-25T03:41:35;6.97;;;1.92;;
47589;SDS011;33316;52.298;9.056;2024-03-25T03:44:01;7.75;;;2.20;;
47589;SDS011;33316;52.298;9.056;2024-03-25T03:46:28;11.50;;;2.28;;
47589;SDS011;33316;52.298;9.056;2024-03-25T03:48:54;6.55;;;1.77;;
47589;SDS011;33316;52.298;9.056;2024-03-25T03:51:21;4.45;;;1.90;;
47589;SDS011;33316;52.298;9.056;2024-03-25T03:53:48;6.63;;;1.80;;
47589;SDS011;33316;52.298;9.056;2024-03-25T03:56:15;10.20;;;2.30;;
47589;SDS011;33316;52.298;9.056;2024-03-25T03:58:41;5.47;;;1.70;;
47589;SDS011;33316;52.298;9.056;2024-03-25T04:01:13;4.78;;;1.70;;
47589;SDS011;33316;52.298;9.056;2024-03-25T04:03:41;6.28;;;1.95;;
47589;SDS011;33316;52.298;9.056;2024-03-25T04:06:08;8.57;;;2.22;;
47589;SDS011;33316;52.298;9.056;2024-03-25T04:08:35;6.70;;;1.83;;
47589;SDS011;33316;52.298;9.056;2024-03-25T04:11:03;6.13;;;1.75;;
47589;SDS011;33316;52.298;9.056;2024-03-25T04:13:31;9.25;;;1.73;;
47589;SDS011;33316;52.298;9.056;2024-03-25T04:16:00;6.70;;;1.75;;
47589;SDS011;33316;52.298;9.056;2024-03-25T04:18:27;7.38;;;2.20;;
47589;SDS011;33316;52.298;9.056;2024-03-25T04:20:54;6.22;;;1.70;;
47589;SDS011;33316;52.298;9.056;2024-03-25T04:23:20;5.28;;;1.50;;
47589;SDS011;33316;52.298;9.056;2024-03-25T04:25:47;9.85;;;2.20;;
47589;SDS011;33316;52.298;9.056;2024-03-25T04:28:17;7.85;;;1.80;;
47589;SDS011;33316;52.298;9.056;2024-03-25T04:30:44;9.10;;;1.92;;
47589;SDS011;33316;52.298;9.056;2024-03-25T04:33:16;6.60;;;1.65;;
47589;SDS011;33316;52.298;9.056;2024-03-25T04:35:42;7.03;;;1.70;;
47589;SDS011;33316;52.298;9.056;2024-03-25T04:38:08;6.90;;;1.50;;
47589;SDS011;33316;52.298;9.056;2024-03-25T04:40:35;4.53;;;1.25;;
47589;SDS011;33316;52.298;9.056;2024-03-25T04:43:01;7.28;;;1.60;;
47589;SDS011;33316;52.298;9.056;2024-03-25T04:45:28;8.35;;;1.98;;
47589;SDS011;33316;52.298;9.056;2024-03-25T04:47:54;5.20;;;1.33;;
47589;SDS011;33316;52.298;9.056;2024-03-25T04:50:20;9.25;;;1.58;;
47589;SDS011;33316;52.298;9.056;2024-03-25T04:52:46;8.15;;;2.00;;
47589;SDS011;33316;52.298;9.056;2024-03-25T04:55:12;4.25;;;1.30;;
47589;SDS011;33316;52.298;9.056;2024-03-25T04:57:37;6.78;;;1.33;;
47589;SDS011;33316;52.298;9.056;2024-03-25T05:00:04;7.03;;;1.85;;
47589;SDS011;33316;52.298;9.056;2024-03-25T05:02:32;4.97;;;1.25;;
47589;SDS011;33316;52.298;9.056;2024-03-25T05:04:58;4.35;;;1.23;;
47589;SDS011;33316;52.298;9.056;2024-03-25T05:07:24;5.95;;;1.38;;
47589;SDS011;33316;52.298;9.056;2024-03-25T05:09:49;10.27;;;1.92;;
47589;SDS011;33316;52.298;9.056;2024-03-25T05:12:19;6.90;;;1.33;;
47589;SDS011;33316;52.298;9.056;2024-03-25T05:14:44;5.00;;;1.42;;
47589;SDS011;33316;52.298;9.056;2024-03-25T05:17:10;7.18;;;1.92;;
47589;SDS011;33316;52.298;9.056;2024-03-25T05:19:38;5.97;;;1.40;;
47589;SDS011;33316;52.298;9.056;2024-03-25T05:22:04;5.50;;;1.17;;
47589;SDS011;33316;52.298;9.056;2024-03-25T05:24:29;5.97;;;1.33;;
47589;SDS011;33316;52.298;9.056;2024-03-25T05:26:55;5.60;;;1.25;;
47589;SDS011;33316;52.298;9.056;2024-03-25T05:29:21;3.55;;;1.40;;
47589;SDS011;33316;52.298;9.056;2024-03-25T05:31:55;5.45;;;1.38;;
47589;SDS011;33316;52.298;9.056;2024-03-25T05:34:23;5.70;;;1.65;;
47589;SDS011;33316;52.298;9.056;2024-03-25T05:36:50;3.88;;;1.20;;
47589;SDS011;33316;52.298;9.056;2024-03-25T05:39:16;4.20;;;1.10;;
47589;SDS011;33316;52.298;9.056;2024-03-25T05:41:42;3.20;;;1.10;;
47589;SDS011;33316;52.298;9.056;2024-03-25T05:44:09;4.38;;;1.10;;
47589;SDS011;33316;52.298;9.056;2024-03-25T05:46:34;5.05;;;1.17;;
47589;SDS011;33316;52.298;9.056;2024-03-25T05:49:01;6.72;;;1.63;;
47589;SDS011;33316;52.298;9.056;2024-03-25T05:51:27;5.07;;;1.35;;
47589;SDS011;33316;52.298;9.056;2024-03-25T05:53:55;3.63;;;1.27;;
47589;SDS011;33316;52.298;9.056;2024-03-25T05:56:21;3.42;;;1.17;;
47589;SDS011;33316;52.298;9.056;2024-03-25T05:58:47;7.78;;;1.80;;
47589;SDS011;33316;52.298;9.056;2024-03-25T06:01:13;4.13;;;1.52;;
47589;SDS011;33316;52.298;9.056;2024-03-25T06:03:39;8.52;;;2.00;;
47589;SDS011;33316;52.298;9.056;2024-03-25T06:06:05;3.25;;;1.30;;
47589;SDS011;33316;52.298;9.056;2024-03-25T06:08:31;4.57;;;1.33;;
47589;SDS011;33316;52.298;9.056;2024-03-25T06:11:01;4.65;;;1.33;;
47589;SDS011;33316;52.298;9.056;2024-03-25T06:13:27;5.25;;;1.23;;
47589;SDS011;33316;52.298;9.056;2024-03-25T06:15:53;5.35;;;1.63;;
47589;SDS011;33316;52.298;9.056;2024-03-25T06:18:19;3.05;;;1.00;;
47589;SDS011;33316;52.298;9.056;2024-03-25T06:20:45;4.72;;;1.27;;
47589;SDS011;33316;52.298;9.056;2024-03-25T06:23:12;3.50;;;1.08;;
47589;SDS011;33316;52.298;9.056;2024-03-25T06:25:48;4.63;;;1.15;;
47589;SDS011;33316;52.298;9.056;2024-03-25T06:28:16;6.20;;;1.92;;
47589;SDS011;33316;52.298;9.056;2024-03-25T06:30:42;4.68;;;1.90;;
47589;SDS011;33316;52.298;9.056;2024-03-25T06:33:26;5.05;;;1.65;;
47589;SDS011;33316;52.298;9.056;2024-03-25T06:36:11;3.72;;;1.33;;
47589;SDS011;33316;52.298;9.056;2024-03-25T06:38:37;7.50;;;1.77;;
47589;SDS011;33316;52.298;9.056;2024-03-25T06:41:03;7.68;;;2.10;;
47589;SDS011;33316;52.298;9.056;2024-03-25T06:43:30;5.35;;;1.63;;
47589;SDS011;33316;52.298;9.056;2024-03-25T06:45:56;5.68;;;1.70;;
47589;SDS011;33316;52.298;9.056;2024-03-25T06:48:22;7.28;;;1.95;;
47589;SDS011;33316;52.298;9.056;2024-03-25T06:50:54;6.85;;;1.80;;
47589;SDS011;33316;52.298;9.056;2024-03-25T06:53:21;5.97;;;1.58;;
47589;SDS011;33316;52.298;9.056;2024-03-25T06:55:51;5.47;;;1.63;;
47589;SDS011;33316;52.298;9.056;2024-03-25T06:58:20;7.82;;;1.60;;
47589;SDS011;33316;52.298;9.056;2024-03-25T07:00:47;4.80;;;1.30;;
47589;SDS011;33316;52.298;9.056;2024-03-25T07:03:14;3.38;;;1.30;;
47589;SDS011;33316;52.298;9.056;2024-03-25T07:05:40;5.70;;;1.70;;
47589;SDS011;33316;52.298;9.056;2024-03-25T07:08:06;5.40;;;1.23;;
47589;SDS011;33316;52.298;9.056;2024-03-25T07:10:32;7.10;;;1.63;;
47589;SDS011;33316;52.298;9.056;2024-03-25T07:13:01;7.10;;;1.83;;
47589;SDS011;33316;52.298;9.056;2024-03-25T07:15:27;4.97;;;1.27;;
47589;SDS011;33316;52.298;9.056;2024-03-25T07:17:54;5.53;;;1.30;;
47589;SDS011;33316;52.298;9.056;2024-03-25T07:20:20;5.22;;;1.10;;
47589;SDS011;33316;52.298;9.056;2024-03-25T07:22:46;4.78;;;1.42;;
47589;SDS011;33316;52.298;9.056;2024-03-25T07:25:12;3.75;;;1.30;;
47589;SDS011;33316;52.298;9.056;2024-03-25T07:27:38;4.45;;;1.30;;
47589;SDS011;33316;52.298;9.056;2024-03-25T07:30:05;5.75;;;1.70;;
47589;SDS011;33316;52.298;9.056;2024-03-25T07:32:32;5.93;;;1.50;;
47589;SDS011;33316;52.298;9.056;2024-03-25T07:34:59;6.35;;;1.40;;
47589;SDS011;33316;52.298;9.056;2024-03-25T07:37:25;7.80;;;1.88;;
47589;SDS011;33316;52.298;9.056;2024-03-25T07:39:51;4.40;;;1.42;;
47589;SDS011;33316;52.298;9.056;2024-03-25T07:42:18;7.47;;;1.70;;
47589;SDS011;33316;52.298;9.056;2024-03-25T07:44:44;6.65;;;1.40;;
47589;SDS011;33316;52.298;9.056;2024-03-25T07:47:09;5.88;;;1.50;;
47589;SDS011;33316;52.298;9.056;2024-03-25T07:49:35;4.60;;;1.58;;
47589;SDS011;33316;52.298;9.056;2024-03-25T07:52:03;5.55;;;1.20;;
47589;SDS011;33316;52.298;9.056;2024-03-25T07:54:30;5.40;;;1.20;;
47589;SDS011;33316;52.298;9.056;2024-03-25T07:56:55;4.75;;;1.77;;
47589;SDS011;33316;52.298;9.056;2024-03-25T07:59:21;4.97;;;1.42;;
47589;SDS011;33316;52.298;9.056;2024-03-25T08:01:47;8.27;;;1.98;;
47589;SDS011;33316;52.298;9.056;2024-03-25T08:04:13;8.65;;;1.67;;
47589;SDS011;33316;52.298;9.056;2024-03-25T08:06:39;9.07;;;1.75;;
47589;SDS011;33316;52.298;9.056;2024-03-25T08:09:06;10.73;;;1.98;;
47589;SDS011;33316;52.298;9.056;2024-03-25T08:11:32;5.75;;;1.70;;
47589;SDS011;33316;52.298;9.056;2024-03-25T08:13:58;5.40;;;1.77;;
47589;SDS011;33316;52.298;9.056;2024-03-25T08:16:24;5.20;;;1.70;;
47589;SDS011;33316;52.298;9.056;2024-03-25T08:18:50;4.47;;;1.15;;
47589;SDS011;33316;52.298;9.056;2024-03-25T08:21:16;5.68;;;1.60;;
47589;SDS011;33316;52.298;9.056;2024-03-25T08:23:44;6.60;;;1.73;;
47589;SDS011;33316;52.298;9.056;2024-03-25T08:26:12;8.02;;;1.90;;
47589;SDS011;33316;52.298;9.056;2024-03-25T08:28:37;7.00;;;1.58;;
47589;SDS011;33316;52.298;9.056;2024-03-25T08:31:04;6.85;;;1.48;;
47589;SDS011;33316;52.298;9.056;2024-03-25T08:33:30;5.70;;;1.65;;
47589;SDS011;33316;52.298;9.056;2024-03-25T08:35:56;6.72;;;1.63;;
47589;SDS011;33316;52.298;9.056;2024-03-25T08:38:22;6.80;;;1.80;;
47589;SDS011;33316;52.298;9.056;2024-03-25T08:40:48;4.97;;;1.48;;
47589;SDS011;33316;52.298;9.056;2024-03-25T08:43:17;3.45;;;1.02;;
47589;SDS011;33316;52.298;9.056;2024-03-25T08:45:43;4.75;;;1.10;;
47589;SDS011;33316;52.298;9.056;2024-03-25T08:48:10;3.53;;;1.02;;
47589;SDS011;33316;52.298;9.056;2024-03-25T08:50:35;3.30;;;1.13;;
47589;SDS011;33316;52.298;9.056;2024-03-25T08:53:02;6.05;;;1.30;;
47589;SDS011;33316;52.298;9.056;2024-03-25T08:55:28;8.45;;;1.73;;
47589;SDS011;33316;52.298;9.056;2024-03-25T08:57:54;6.05;;;1.45;;
47589;SDS011;33316;52.298;9.056;2024-03-25T09:00:22;4.88;;;1.23;;
47589;SDS011;33316;52.298;9.056;2024-03-25T09:02:48;5.43;;;1.30;;
47589;SDS011;33316;52.298;9.056;2024-03-25T09:05:14;7.93;;;1.23;;
47589;SDS011;33316;52.298;9.056;2024-03-25T09:07:40;8.10;;;1.30;;
47589;SDS011;33316;52.298;9.056;2024-03-25T09:10:06;5.18;;;1.02;;
47589;SDS011;33316;52.298;9.056;2024-03-25T09:12:51;8.88;;;1.60;;
47589;SDS011;33316;52.298;9.056;2024-03-25T09:15:16;5.53;;;1.38;;
47589;SDS011;33316;52.298;9.056;2024-03-25T09:17:44;5.30;;;1.20;;
47589;SDS011;33316;52.298;9.056;2024-03-25T09:20:10;2.63;;;0.85;;
47589;SDS011;33316;52.298;9.056;2024-03-25T09:22:38;5.13;;;1.20;;
47589;SDS011;33316;52.298;9.056;2024-03-25T09:25:04;5.03;;;1.27;;
47589;SDS011;33316;52.298;9.056;2024-03-25T09:27:33;4.78;;;1.13;;
47589;SDS011;33316;52.298;9.056;2024-03-25T09:29:59;5.47;;;1.50;;
47589;SDS011;33316;52.298;9.056;2024-03-25T09:32:26;6.72;;;1.52;;
47589;SDS011;33316;52.298;9.056;2024-03-25T09:34:54;5.32;;;1.10;;
47589;SDS011;33316;52.298;9.056;2024-03-25T09:37:19;2.47;;;1.00;;
47589;SDS011;33316;52.298;9.056;2024-03-25T09:39:45;5.00;;;1.35;;
47589;SDS011;33316;52.298;9.056;2024-03-25T09:42:13;7.20;;;1.50;;
47589;SDS011;33316;52.298;9.056;2024-03-25T09:44:40;3.40;;;1.10;;
47589;SDS011;33316;52.298;9.056;2024-03-25T09:47:06;7.00;;;1.70;;
47589;SDS011;33316;52.298;9.056;2024-03-25T09:49:33;4.95;;;1.30;;
47589;SDS011;33316;52.298;9.056;2024-03-25T09:52:02;7.68;;;1.63;;
47589;SDS011;33316;52.298;9.056;2024-03-25T09:54:28;6.47;;;1.73;;
47589;SDS011;33316;52.298;9.056;2024-03-25T09:56:54;6.32;;;1.55;;
47589;SDS011;33316;52.298;9.056;2024-03-25T09:59:23;5.47;;;1.75;;
47589;SDS011;33316;52.298;9.056;2024-03-25T10:01:49;5.95;;;1.65;;
47589;SDS011;33316;52.298;9.056;2024-03-25T10:04:15;5.22;;;1.27;;
47589;SDS011;33316;52.298;9.056;2024-03-25T10:06:41;4.20;;;1.50;;
47589;SDS011;33316;52.298;9.056;2024-03-25T10:09:08;2.85;;;1.13;;
47589;SDS011;33316;52.298;9.056;2024-03-25T10:11:34;3.00;;;0.80;;
47589;SDS011;33316;52.298;9.056;2024-03-25T10:14:00;5.97;;;1.10;;
47589;SDS011;33316;52.298;9.056;2024-03-25T10:16:27;3.42;;;1.08;;
47589;SDS011;33316;52.298;9.056;2024-03-25T10:18:53;3.47;;;1.10;;
47589;SDS011;33316;52.298;9.056;2024-03-25T10:21:19;6.57;;;2.33;;
47589;SDS011;33316;52.298;9.056;2024-03-25T10:23:46;7.90;;;2.03;;
47589;SDS011;33316;52.298;9.056;2024-03-25T10:26:25;5.75;;;1.40;;
47589;SDS011;33316;52.298;9.056;2024-03-25T10:29:02;5.38;;;1.05;;
47589;SDS011;33316;52.298;9.056;2024-03-25T10:31:30;3.80;;;0.82;;
47589;SDS011;33316;52.298;9.056;2024-03-25T10:33:56;3.95;;;0.80;;
47589;SDS011;33316;52.298;9.056;2024-03-25T10:36:23;4.57;;;1.33;;
47589;SDS011;33316;52.298;9.056;2024-03-25T10:38:52;4.80;;;1.10;;
47589;SDS011;33316;52.298;9.056;2024-03-25T10:41:19;6.43;;;1.30;;
47589;SDS011;33316;52.298;9.056;2024-03-25T10:43:48;6.00;;;1.30;;
47589;SDS011;33316;52.298;9.056;2024-03-25T10:46:17;3.35;;;0.95;;
47589;SDS011;33316;52.298;9.056;2024-03-25T10:48:47;2.70;;;0.98;;
47589;SDS011;33316;52.298;9.056;2024-03-25T10:51:19;3.22;;;0.77;;
47589;SDS011;33316;52.298;9.056;2024-03-25T10:53:47;5.07;;;0.98;;
47589;SDS011;33316;52.298;9.056;2024-03-25T10:56:17;4.05;;;1.15;;
47589;SDS011;33316;52.298;9.056;2024-03-25T10:58:47;2.33;;;0.88;;
47589;SDS011;33316;52.298;9.056;2024-03-25T11:01:14;3.25;;;1.00;;
47589;SDS011;33316;52.298;9.056;2024-03-25T11:03:42;5.78;;;1.10;;
47589;SDS011;33316;52.298;9.056;2024-03-25T11:06:10;4.60;;;1.25;;
47589;SDS011;33316;52.298;9.056;2024-03-25T11:08:36;5.28;;;0.90;;
47589;SDS011;33316;52.298;9.056;2024-03-25T11:11:02;2.60;;;0.88;;
47589;SDS011;33316;52.298;9.056;2024-03-25T11:13:28;5.82;;;0.90;;
47589;SDS011;33316;52.298;9.056;2024-03-25T11:15:56;3.22;;;1.10;;
47589;SDS011;33316;52.298;9.056;2024-03-25T11:18:23;3.88;;;1.45;;
47589;SDS011;33316;52.298;9.056;2024-03-25T11:21:01;3.58;;;0.70;;
47589;SDS011;33316;52.298;9.056;2024-03-25T11:23:34;2.53;;;0.50;;
47589;SDS011;33316;52.298;9.056;2024-03-25T11:26:01;4.00;;;0.80;;
47589;SDS011;33316;52.298;9.056;2024-03-25T11:28:27;2.88;;;0.90;;
47589;SDS011;33316;52.298;9.056;2024-03-25T11:30:55;2.45;;;0.82;;
47589;SDS011;33316;52.298;9.056;2024-03-25T11:33:22;4.55;;;1.13;;
47589;SDS011;33316;52.298;9.056;2024-03-25T11:35:48;3.55;;;1.15;;
47589;SDS011;33316;52.298;9.056;2024-03-25T11:38:15;4.78;;;1.30;;
47589;SDS011;33316;52.298;9.056;2024-03-25T11:40:42;3.30;;;0.90;;
47589;SDS011;33316;52.298;9.056;2024-03-25T11:43:17;3.30;;;0.82;;
47589;SDS011;33316;52.298;9.056;2024-03-25T11:45:44;5.57;;;1.27;;
47589;SDS011;33316;52.298;9.056;2024-03-25T11:48:14;2.38;;;0.75;;
47589;SDS011;33316;52.298;9.056;2024-03-25T11:50:41;2.17;;;0.60;;
47589;SDS011;33316;52.298;9.056;2024-03-25T11:53:16;4.57;;;1.30;;
47589;SDS011;33316;52.298;9.056;2024-03-25T11:55:45;4.82;;;0.88;;
47589;SDS011;33316;52.298;9.056;2024-03-25T11:58:11;4.38;;;1.20;;
47589;SDS011;33316;52.298;9.056;2024-03-25T12:00:42;3.90;;;0.88;;
47589;SDS011;33316;52.298;9.056;2024-03-25T12:03:10;2.92;;;0.98;;
47589;SDS011;33316;52.298;9.056;2024-03-25T12:05:40;2.90;;;0.65;;
47589;SDS011;33316;52.298;9.056;2024-03-25T12:08:08;2.87;;;0.80;;
47589;SDS011;33316;52.298;9.056;2024-03-25T12:10:34;3.10;;;0.50;;
47589;SDS011;33316;52.298;9.056;2024-03-25T12:13:18;1.25;;;0.45;;
47589;SDS011;33316;52.298;9.056;2024-03-25T12:15:45;0.55;;;0.40;;
47589;SDS011;33316;52.298;9.056;2024-03-25T12:18:11;2.25;;;0.70;;
47589;SDS011;33316;52.298;9.056;2024-03-25T12:20:40;2.03;;;0.60;;
47589;SDS011;33316;52.298;9.056;2024-03-25T12:23:06;3.92;;;0.73;;
47589;SDS011;33316;52.298;9.056;2024-03-25T12:25:33;1.27;;;0.60;;
47589;SDS011;33316;52.298;9.056;2024-03-25T12:27:59;2.97;;;0.68;;
47589;SDS011;33316;52.298;9.056;2024-03-25T12:30:25;3.25;;;0.60;;
47589;SDS011;33316;52.298;9.056;2024-03-25T12:32:51;2.92;;;0.80;;
47589;SDS011;33316;52.298;9.056;2024-03-25T12:35:17;1.67;;;0.52;;
47589;SDS011;33316;52.298;9.056;2024-03-25T12:37:48;3.03;;;0.60;;
47589;SDS011;33316;52.298;9.056;2024-03-25T12:40:24;2.80;;;0.73;;
47589;SDS011;33316;52.298;9.056;2024-03-25T12:42:51;3.25;;;0.75;;
47589;SDS011;33316;52.298;9.056;2024-03-25T12:45:19;2.80;;;0.75;;
47589;SDS011;33316;52.298;9.056;2024-03-25T12:47:46;2.92;;;0.80;;
47589;SDS011;33316;52.298;9.056;2024-03-25T12:50:12;2.40;;;0.60;;
47589;SDS011;33316;52.298;9.056;2024-03-25T12:52:39;1.77;;;0.50;;
47589;SDS011;33316;52.298;9.056;2024-03-25T12:55:09;1.83;;;0.52;;
47589;SDS011;33316;52.298;9.056;2024-03-25T12:57:39;2.40;;;0.73;;
47589;SDS011;33316;52.298;9.056;2024-03-25T13:00:06;2.33;;;0.65;;
47589;SDS011;33316;52.298;9.056;2024-03-25T13:02:33;3.55;;;0.80;;
47589;SDS011;33316;52.298;9.056;2024-03-25T13:05:00;3.60;;;0.70;;
47589;SDS011;33316;52.298;9.056;2024-03-25T13:07:26;3.03;;;0.70;;
47589;SDS011;33316;52.298;9.056;2024-03-25T13:09:52;2.97;;;1.10;;
47589;SDS011;33316;52.298;9.056;2024-03-25T13:12:19;3.13;;;0.68;;
47589;SDS011;33316;52.298;9.056;2024-03-25T13:14:45;2.97;;;0.52;;
47589;SDS011;33316;52.298;9.056;2024-03-25T13:17:11;5.22;;;0.75;;
47589;SDS011;33316;52.298;9.056;2024-03-25T13:19:37;2.65;;;0.75;;
47589;SDS011;33316;52.298;9.056;2024-03-25T13:22:03;1.58;;;0.63;;
47589;SDS011;33316;52.298;9.056;2024-03-25T13:24:29;1.67;;;0.70;;
47589;SDS011;33316;52.298;9.056;2024-03-25T13:26:55;1.95;;;0.60;;
47589;SDS011;33316;52.298;9.056;2024-03-25T13:29:23;2.75;;;0.70;;
47589;SDS011;33316;52.298;9.056;2024-03-25T13:31:48;2.75;;;0.68;;
47589;SDS011;33316;52.298;9.056;2024-03-25T13:34:14;3.53;;;0.77;;
47589;SDS011;33316;52.298;9.056;2024-03-25T13:36:40;5.68;;;0.70;;
47589;SDS011;33316;52.298;9.056;2024-03-25T13:39:06;2.28;;;0.60;;
47589;SDS011;33316;52.298;9.056;2024-03-25T13:41:35;3.08;;;0.77;;
47589;SDS011;33316;52.298;9.056;2024-03-25T13:44:01;2.60;;;0.80;;
47589;SDS011;33316;52.298;9.056;2024-03-25T13:46:28;2.20;;;0.57;;
47589;SDS011;33316;52.298;9.056;2024-03-25T13:48:54;1.85;;;0.70;;
47589;SDS011;33316;52.298;9.056;2024-03-25T13:51:20;1.52;;;0.60;;
47589;SDS011;33316;52.298;9.056;2024-03-25T13:53:46;3.05;;;0.60;;
47589;SDS011;33316;52.298;9.056;2024-03-25T13:56:12;1.20;;;0.50;;
47589;SDS011;33316;52.298;9.056;2024-03-25T13:58:38;2.75;;;0.52;;
47589;SDS011;33316;52.298;9.056;2024-03-25T14:01:04;1.45;;;0.47;;
47589;SDS011;33316;52.298;9.056;2024-03-25T14:03:31;4.55;;;0.77;;
47589;SDS011;33316;52.298;9.056;2024-03-25T14:05:58;2.90;;;0.50;;
47589;SDS011;33316;52.298;9.056;2024-03-25T14:08:24;1.67;;;0.47;;
47589;SDS011;33316;52.298;9.056;2024-03-25T14:10:56;2.30;;;0.47;;
47589;SDS011;33316;52.298;9.056;2024-03-25T14:13:23;2.42;;;0.60;;
47589;SDS011;33316;52.298;9.056;2024-03-25T14:15:49;1.55;;;0.50;;
47589;SDS011;33316;52.298;9.056;2024-03-25T14:18:18;1.00;;;0.40;;
47589;SDS011;33316;52.298;9.056;2024-03-25T14:20:45;1.75;;;0.50;;
47589;SDS011;33316;52.298;9.056;2024-03-25T14:23:11;1.17;;;0.40;;
47589;SDS011;33316;52.298;9.056;2024-03-25T14:25:38;1.17;;;0.50;;
47589;SDS011;33316;52.298;9.056;2024-03-25T14:28:05;3.97;;;0.55;;
47589;SDS011;33316;52.298;9.056;2024-03-25T14:30:31;2.05;;;0.57;;
47589;SDS011;33316;52.298;9.056;2024-03-25T14:32:57;2.45;;;0.40;;
47589;SDS011;33316;52.298;9.056;2024-03-25T14:35:23;1.50;;;0.55;;
47589;SDS011;33316;52.298;9.056;2024-03-25T14:37:50;1.35;;;0.40;;
47589;SDS011;33316;52.298;9.056;2024-03-25T14:40:16;2.13;;;0.68;;
47589;SDS011;33316;52.298;9.056;2024-03-25T14:42:42;1.48;;;0.47;;
47589;SDS011;33316;52.298;9.056;2024-03-25T14:45:09;2.25;;;0.50;;
47589;SDS011;33316;52.298;9.056;2024-03-25T14:47:35;1.13;;;0.63;;